Metropolitan Oakland International Airport
KOAK : now visible

Airfield :











YOU CAN JOIN US ON...

 
LOGIN :

Register | Disclaimer

   EN    FR    IT 

 









Legend :    VFR   Marginal VFR   IFR   Intensive IFR   Very Intensive IFR
Visi :
Ceiling :
>= 8 km
>= 3000ft
5 to 8 km
1000 to 3000 ft
1500m to 5 km
500 to 1000 ft
800 to 1500m
200 to 500 ft
< 800m
< 200 ft
Symbols :   Thunderstorms  Fog  Heavy snow  Heavy precipitations  Wind > 20 kt






- Airport Elevation : 9 ft
- IATA code : OAK


KOAK - Metropolitan Oakland International

CURRENT METAR :
  • 030853Z 06004KT 10SM FEW250 16/12 A3000 RMK AO2 SLP159 T01560117 58010

EXPIRED METARs :
  • 030753Z 00000KT 10SM FEW200 17/12 A3002 RMK AO2 SLP164 T01670122 402280150
  • 030653Z 04003KT 10SM FEW200 16/11 A3003 RMK AO2 SLP166 T01560111

TAF KOAK
Valid from the 03 at 06:00 until the 04 at 12:00 UTC


030523Z 0306/0412 27006KT P6SM SKC WS020/31030KT
FM031200 VRB03KT P6SM SCT006 WS020/32030KT
FM031700 28008KT P6SM FEW010
FM032100 28012KT P6SM FEW012
FM040300 29008KT P6SM SCT010
FM040500 29005KT P6SM BKN010
KZOA FIR / North America



MET'MAP, your aeronautical weather chart ! - Copyright ORBIFLY December 2007 - Disclaimer

ORBIFLY MET'MAP TEAM :

Programming & Development : Alexandra Zaïnal
Concept & original design : Baudouin d'Aumeries
Assistance for programming : Marc-Olivier Méhu
Technical & hardware support : Manuel Goepfert

Contact : metmap@orbifly.com




SOURCES & CREDITS :

   NOAA       Earth
Advisory